sensor_id;sensor_type;location;lat;lon;timestamp;P1;durP1;ratioP1;P2;durP2;ratioP2
28960;SDS011;16068;42.896;20.868;2023-05-10T00:02:07;5.78;;;2.65;;
28960;SDS011;16068;42.896;20.868;2023-05-10T00:04:53;4.47;;;2.50;;
28960;SDS011;16068;42.896;20.868;2023-05-10T00:07:39;3.72;;;2.55;;
28960;SDS011;16068;42.896;20.868;2023-05-10T00:10:26;8.60;;;2.70;;
28960;SDS011;16068;42.896;20.868;2023-05-10T00:13:12;6.75;;;2.58;;
28960;SDS011;16068;42.896;20.868;2023-05-10T00:15:58;2.60;;;1.95;;
28960;SDS011;16068;42.896;20.868;2023-05-10T00:18:44;4.78;;;2.20;;
28960;SDS011;16068;42.896;20.868;2023-05-10T00:21:30;6.00;;;2.20;;
28960;SDS011;16068;42.896;20.868;2023-05-10T00:24:17;7.05;;;2.33;;
28960;SDS011;16068;42.896;20.868;2023-05-10T00:27:03;4.18;;;2.20;;
28960;SDS011;16068;42.896;20.868;2023-05-10T00:29:49;3.42;;;2.20;;
28960;SDS011;16068;42.896;20.868;2023-05-10T00:32:35;5.32;;;1.90;;
28960;SDS011;16068;42.896;20.868;2023-05-10T00:35:22;2.55;;;1.90;;
28960;SDS011;16068;42.896;20.868;2023-05-10T00:38:08;1.98;;;1.77;;
28960;SDS011;16068;42.896;20.868;2023-05-10T00:40:54;3.67;;;2.30;;
28960;SDS011;16068;42.896;20.868;2023-05-10T00:43:46;4.15;;;2.30;;
28960;SDS011;16068;42.896;20.868;2023-05-10T00:46:32;8.02;;;2.15;;
28960;SDS011;16068;42.896;20.868;2023-05-10T00:49:18;8.68;;;2.28;;
28960;SDS011;16068;42.896;20.868;2023-05-10T00:52:05;2.75;;;2.05;;
28960;SDS011;16068;42.896;20.868;2023-05-10T00:54:51;4.63;;;1.98;;
28960;SDS011;16068;42.896;20.868;2023-05-10T00:57:37;4.35;;;2.33;;
28960;SDS011;16068;42.896;20.868;2023-05-10T01:00:24;3.17;;;1.98;;
28960;SDS011;16068;42.896;20.868;2023-05-10T01:03:11;3.17;;;2.00;;
28960;SDS011;16068;42.896;20.868;2023-05-10T01:05:57;2.47;;;1.92;;
28960;SDS011;16068;42.896;20.868;2023-05-10T01:08:44;5.35;;;2.33;;
28960;SDS011;16068;42.896;20.868;2023-05-10T01:11:29;2.35;;;1.95;;
28960;SDS011;16068;42.896;20.868;2023-05-10T01:14:16;3.92;;;2.25;;
28960;SDS011;16068;42.896;20.868;2023-05-10T01:17:04;4.60;;;2.00;;
28960;SDS011;16068;42.896;20.868;2023-05-10T01:19:50;5.68;;;2.40;;
28960;SDS011;16068;42.896;20.868;2023-05-10T01:22:50;3.33;;;2.20;;
28960;SDS011;16068;42.896;20.868;2023-05-10T01:35:17;3.10;;;2.20;;
28960;SDS011;16068;42.896;20.868;2023-05-10T01:38:29;6.38;;;2.35;;
28960;SDS011;16068;42.896;20.868;2023-05-10T01:47:54;6.18;;;2.70;;
28960;SDS011;16068;42.896;20.868;2023-05-10T01:50:53;5.60;;;2.58;;
28960;SDS011;16068;42.896;20.868;2023-05-10T01:53:40;9.25;;;2.88;;
28960;SDS011;16068;42.896;20.868;2023-05-10T01:56:29;3.53;;;2.30;;
28960;SDS011;16068;42.896;20.868;2023-05-10T01:59:17;5.57;;;2.50;;
28960;SDS011;16068;42.896;20.868;2023-05-10T02:02:04;5.00;;;4.00;;
28960;SDS011;16068;42.896;20.868;2023-05-10T02:04:51;5.75;;;3.30;;
28960;SDS011;16068;42.896;20.868;2023-05-10T02:07:38;5.53;;;3.10;;
28960;SDS011;16068;42.896;20.868;2023-05-10T02:10:29;6.35;;;3.20;;
28960;SDS011;16068;42.896;20.868;2023-05-10T02:13:16;5.45;;;3.15;;
28960;SDS011;16068;42.896;20.868;2023-05-10T02:16:02;5.90;;;3.70;;
28960;SDS011;16068;42.896;20.868;2023-05-10T02:18:49;7.57;;;3.22;;
28960;SDS011;16068;42.896;20.868;2023-05-10T02:21:37;7.60;;;3.47;;
28960;SDS011;16068;42.896;20.868;2023-05-10T02:24:25;4.80;;;3.05;;
28960;SDS011;16068;42.896;20.868;2023-05-10T02:27:11;8.43;;;3.08;;
28960;SDS011;16068;42.896;20.868;2023-05-10T02:30:00;4.15;;;2.38;;
28960;SDS011;16068;42.896;20.868;2023-05-10T02:32:46;4.13;;;2.67;;
28960;SDS011;16068;42.896;20.868;2023-05-10T02:35:32;7.47;;;3.00;;
28960;SDS011;16068;42.896;20.868;2023-05-10T02:38:20;3.80;;;2.85;;
28960;SDS011;16068;42.896;20.868;2023-05-10T02:41:08;4.85;;;2.80;;
28960;SDS011;16068;42.896;20.868;2023-05-10T02:43:56;6.20;;;2.78;;
28960;SDS011;16068;42.896;20.868;2023-05-10T02:46:45;5.45;;;2.92;;
28960;SDS011;16068;42.896;20.868;2023-05-10T02:49:32;4.45;;;2.72;;
28960;SDS011;16068;42.896;20.868;2023-05-10T02:52:19;2.65;;;2.42;;
28960;SDS011;16068;42.896;20.868;2023-05-10T02:55:09;7.57;;;3.70;;
28960;SDS011;16068;42.896;20.868;2023-05-10T02:58:01;6.03;;;3.55;;
28960;SDS011;16068;42.896;20.868;2023-05-10T03:00:47;11.00;;;6.55;;
28960;SDS011;16068;42.896;20.868;2023-05-10T03:03:33;10.90;;;5.80;;
28960;SDS011;16068;42.896;20.868;2023-05-10T03:06:19;12.80;;;3.97;;
28960;SDS011;16068;42.896;20.868;2023-05-10T03:09:05;6.88;;;3.25;;
28960;SDS011;16068;42.896;20.868;2023-05-10T03:14:59;8.00;;;3.10;;
28960;SDS011;16068;42.896;20.868;2023-05-10T03:18:01;6.68;;;3.00;;
28960;SDS011;16068;42.896;20.868;2023-05-10T03:20:57;3.90;;;2.75;;
28960;SDS011;16068;42.896;20.868;2023-05-10T03:23:47;6.15;;;2.60;;
28960;SDS011;16068;42.896;20.868;2023-05-10T03:26:45;6.72;;;2.90;;
28960;SDS011;16068;42.896;20.868;2023-05-10T03:29:34;5.10;;;2.70;;
28960;SDS011;16068;42.896;20.868;2023-05-10T03:32:22;8.05;;;2.60;;
28960;SDS011;16068;42.896;20.868;2023-05-10T03:35:09;8.23;;;2.80;;
28960;SDS011;16068;42.896;20.868;2023-05-10T03:37:55;8.40;;;3.10;;
28960;SDS011;16068;42.896;20.868;2023-05-10T03:40:41;7.63;;;3.42;;
28960;SDS011;16068;42.896;20.868;2023-05-10T03:43:27;4.43;;;3.00;;
28960;SDS011;16068;42.896;20.868;2023-05-10T03:46:13;10.57;;;6.20;;
28960;SDS011;16068;42.896;20.868;2023-05-10T03:49:00;9.68;;;6.47;;
28960;SDS011;16068;42.896;20.868;2023-05-10T03:51:46;6.05;;;4.03;;
28960;SDS011;16068;42.896;20.868;2023-05-10T03:54:32;14.88;;;4.25;;
28960;SDS011;16068;42.896;20.868;2023-05-10T03:57:18;4.63;;;3.53;;
28960;SDS011;16068;42.896;20.868;2023-05-10T04:00:04;8.23;;;3.90;;
28960;SDS011;16068;42.896;20.868;2023-05-10T04:02:58;12.70;;;3.55;;
28960;SDS011;16068;42.896;20.868;2023-05-10T04:05:45;7.32;;;3.38;;
28960;SDS011;16068;42.896;20.868;2023-05-10T04:08:31;9.07;;;3.63;;
28960;SDS011;16068;42.896;20.868;2023-05-10T04:11:17;7.93;;;3.47;;
28960;SDS011;16068;42.896;20.868;2023-05-10T04:14:03;6.82;;;3.50;;
28960;SDS011;16068;42.896;20.868;2023-05-10T04:16:49;11.68;;;3.63;;
28960;SDS011;16068;42.896;20.868;2023-05-10T04:19:35;7.88;;;3.50;;
28960;SDS011;16068;42.896;20.868;2023-05-10T04:22:20;9.77;;;3.25;;
28960;SDS011;16068;42.896;20.868;2023-05-10T04:25:06;9.43;;;2.92;;
28960;SDS011;16068;42.896;20.868;2023-05-10T04:27:52;5.53;;;2.90;;
28960;SDS011;16068;42.896;20.868;2023-05-10T04:30:38;10.52;;;2.80;;
28960;SDS011;16068;42.896;20.868;2023-05-10T04:33:24;10.15;;;3.60;;
28960;SDS011;16068;42.896;20.868;2023-05-10T04:36:11;5.35;;;3.22;;
28960;SDS011;16068;42.896;20.868;2023-05-10T04:38:57;5.88;;;3.50;;
28960;SDS011;16068;42.896;20.868;2023-05-10T04:41:43;6.55;;;2.92;;
28960;SDS011;16068;42.896;20.868;2023-05-10T04:44:29;7.75;;;3.17;;
28960;SDS011;16068;42.896;20.868;2023-05-10T04:47:16;9.48;;;3.10;;
28960;SDS011;16068;42.896;20.868;2023-05-10T04:50:03;10.15;;;3.13;;
28960;SDS011;16068;42.896;20.868;2023-05-10T04:52:49;6.72;;;3.53;;
28960;SDS011;16068;42.896;20.868;2023-05-10T04:55:37;7.40;;;3.85;;
28960;SDS011;16068;42.896;20.868;2023-05-10T04:58:23;6.35;;;4.13;;
28960;SDS011;16068;42.896;20.868;2023-05-10T05:01:10;8.25;;;3.13;;
28960;SDS011;16068;42.896;20.868;2023-05-10T05:03:56;6.35;;;2.70;;
28960;SDS011;16068;42.896;20.868;2023-05-10T05:06:43;6.43;;;3.65;;
28960;SDS011;16068;42.896;20.868;2023-05-10T05:09:30;14.50;;;3.35;;
28960;SDS011;16068;42.896;20.868;2023-05-10T05:12:18;8.43;;;2.75;;
28960;SDS011;16068;42.896;20.868;2023-05-10T05:15:04;5.25;;;2.70;;
28960;SDS011;16068;42.896;20.868;2023-05-10T05:17:54;13.10;;;2.47;;
28960;SDS011;16068;42.896;20.868;2023-05-10T05:20:40;5.22;;;2.60;;
28960;SDS011;16068;42.896;20.868;2023-05-10T05:23:26;13.70;;;3.35;;
28960;SDS011;16068;42.896;20.868;2023-05-10T05:26:12;12.98;;;2.58;;
28960;SDS011;16068;42.896;20.868;2023-05-10T05:28:58;5.53;;;2.80;;
28960;SDS011;16068;42.896;20.868;2023-05-10T05:31:44;6.03;;;2.72;;
28960;SDS011;16068;42.896;20.868;2023-05-10T05:34:31;5.35;;;3.63;;
28960;SDS011;16068;42.896;20.868;2023-05-10T05:37:19;8.88;;;3.35;;
28960;SDS011;16068;42.896;20.868;2023-05-10T05:40:07;3.00;;;2.05;;
28960;SDS011;16068;42.896;20.868;2023-05-10T05:42:53;12.15;;;1.80;;
28960;SDS011;16068;42.896;20.868;2023-05-10T05:45:40;3.17;;;1.40;;
28960;SDS011;16068;42.896;20.868;2023-05-10T05:48:26;4.28;;;1.60;;
28960;SDS011;16068;42.896;20.868;2023-05-10T05:51:12;6.85;;;1.70;;
28960;SDS011;16068;42.896;20.868;2023-05-10T05:53:58;4.45;;;2.60;;
28960;SDS011;16068;42.896;20.868;2023-05-10T05:56:44;5.40;;;2.45;;
28960;SDS011;16068;42.896;20.868;2023-05-10T05:59:30;7.93;;;2.40;;
28960;SDS011;16068;42.896;20.868;2023-05-10T06:02:16;11.32;;;2.85;;
28960;SDS011;16068;42.896;20.868;2023-05-10T06:05:03;5.07;;;1.98;;
28960;SDS011;16068;42.896;20.868;2023-05-10T06:07:49;5.25;;;2.10;;
28960;SDS011;16068;42.896;20.868;2023-05-10T06:10:35;3.42;;;2.33;;
28960;SDS011;16068;42.896;20.868;2023-05-10T06:13:21;7.78;;;2.80;;
28960;SDS011;16068;42.896;20.868;2023-05-10T06:16:07;5.65;;;2.90;;
28960;SDS011;16068;42.896;20.868;2023-05-10T06:18:54;17.90;;;2.95;;
28960;SDS011;16068;42.896;20.868;2023-05-10T06:21:40;8.57;;;3.10;;
28960;SDS011;16068;42.896;20.868;2023-05-10T06:24:27;5.55;;;3.00;;
28960;SDS011;16068;42.896;20.868;2023-05-10T06:27:13;5.97;;;2.45;;
28960;SDS011;16068;42.896;20.868;2023-05-10T06:29:58;4.20;;;2.22;;
28960;SDS011;16068;42.896;20.868;2023-05-10T06:32:59;4.53;;;2.50;;
28960;SDS011;16068;42.896;20.868;2023-05-10T06:35:45;4.18;;;2.40;;
28960;SDS011;16068;42.896;20.868;2023-05-10T06:38:31;4.00;;;2.10;;
28960;SDS011;16068;42.896;20.868;2023-05-10T06:41:17;6.63;;;2.00;;
28960;SDS011;16068;42.896;20.868;2023-05-10T06:44:03;7.05;;;2.28;;
28960;SDS011;16068;42.896;20.868;2023-05-10T06:46:49;7.75;;;2.53;;
28960;SDS011;16068;42.896;20.868;2023-05-10T06:49:35;4.32;;;2.22;;
28960;SDS011;16068;42.896;20.868;2023-05-10T06:52:23;4.63;;;2.38;;
28960;SDS011;16068;42.896;20.868;2023-05-10T06:55:09;8.00;;;2.50;;
28960;SDS011;16068;42.896;20.868;2023-05-10T06:58:02;7.23;;;2.10;;
28960;SDS011;16068;42.896;20.868;2023-05-10T07:00:48;3.55;;;2.15;;
28960;SDS011;16068;42.896;20.868;2023-05-10T07:03:34;8.00;;;2.08;;
28960;SDS011;16068;42.896;20.868;2023-05-10T07:06:20;7.95;;;2.20;;
28960;SDS011;16068;42.896;20.868;2023-05-10T07:09:17;7.50;;;2.70;;
28960;SDS011;16068;42.896;20.868;2023-05-10T07:12:03;5.80;;;2.40;;
28960;SDS011;16068;42.896;20.868;2023-05-10T07:14:49;9.68;;;3.20;;
28960;SDS011;16068;42.896;20.868;2023-05-10T07:17:35;8.38;;;3.30;;
28960;SDS011;16068;42.896;20.868;2023-05-10T07:20:21;10.95;;;3.22;;
28960;SDS011;16068;42.896;20.868;2023-05-10T07:23:07;11.23;;;3.72;;
28960;SDS011;16068;42.896;20.868;2023-05-10T07:25:53;8.35;;;3.20;;
28960;SDS011;16068;42.896;20.868;2023-05-10T07:28:39;22.70;;;11.13;;
28960;SDS011;16068;42.896;20.868;2023-05-10T07:31:26;20.75;;;10.60;;
28960;SDS011;16068;42.896;20.868;2023-05-10T07:34:12;25.65;;;9.45;;
28960;SDS011;16068;42.896;20.868;2023-05-10T07:36:58;26.50;;;10.65;;
28960;SDS011;16068;42.896;20.868;2023-05-10T07:39:45;25.05;;;10.32;;
28960;SDS011;16068;42.896;20.868;2023-05-10T07:42:30;24.98;;;7.75;;
28960;SDS011;16068;42.896;20.868;2023-05-10T07:45:16;16.92;;;7.03;;
28960;SDS011;16068;42.896;20.868;2023-05-10T07:48:02;11.23;;;6.63;;
28960;SDS011;16068;42.896;20.868;2023-05-10T07:50:48;14.50;;;6.18;;
28960;SDS011;16068;42.896;20.868;2023-05-10T07:53:34;11.18;;;5.40;;
28960;SDS011;16068;42.896;20.868;2023-05-10T07:56:21;11.38;;;5.10;;
28960;SDS011;16068;42.896;20.868;2023-05-10T07:59:16;15.02;;;8.40;;
28960;SDS011;16068;42.896;20.868;2023-05-10T08:02:02;14.40;;;6.35;;
28960;SDS011;16068;42.896;20.868;2023-05-10T08:04:48;13.13;;;5.07;;
28960;SDS011;16068;42.896;20.868;2023-05-10T08:07:34;14.25;;;6.13;;
28960;SDS011;16068;42.896;20.868;2023-05-10T08:10:19;19.17;;;5.38;;
28960;SDS011;16068;42.896;20.868;2023-05-10T08:13:05;12.32;;;4.60;;
28960;SDS011;16068;42.896;20.868;2023-05-10T08:15:51;9.68;;;5.35;;
28960;SDS011;16068;42.896;20.868;2023-05-10T08:18:38;10.77;;;4.25;;
28960;SDS011;16068;42.896;20.868;2023-05-10T08:21:25;9.90;;;3.53;;
28960;SDS011;16068;42.896;20.868;2023-05-10T08:24:11;8.07;;;3.58;;
28960;SDS011;16068;42.896;20.868;2023-05-10T08:26:57;9.98;;;4.10;;
28960;SDS011;16068;42.896;20.868;2023-05-10T08:29:43;7.50;;;3.60;;
28960;SDS011;16068;42.896;20.868;2023-05-10T08:32:35;6.63;;;3.92;;
28960;SDS011;16068;42.896;20.868;2023-05-10T08:35:20;6.25;;;3.83;;
28960;SDS011;16068;42.896;20.868;2023-05-10T08:38:06;10.40;;;3.95;;
28960;SDS011;16068;42.896;20.868;2023-05-10T08:40:53;13.68;;;4.50;;
28960;SDS011;16068;42.896;20.868;2023-05-10T08:43:42;6.25;;;3.40;;
28960;SDS011;16068;42.896;20.868;2023-05-10T08:46:31;9.70;;;4.00;;
28960;SDS011;16068;42.896;20.868;2023-05-10T08:49:21;19.70;;;3.95;;
28960;SDS011;16068;42.896;20.868;2023-05-10T08:52:07;8.98;;;3.42;;
28960;SDS011;16068;42.896;20.868;2023-05-10T08:54:53;7.20;;;3.67;;
28960;SDS011;16068;42.896;20.868;2023-05-10T08:57:39;13.75;;;5.05;;
28960;SDS011;16068;42.896;20.868;2023-05-10T09:00:26;13.82;;;3.50;;
28960;SDS011;16068;42.896;20.868;2023-05-10T09:03:12;3.97;;;2.80;;
28960;SDS011;16068;42.896;20.868;2023-05-10T09:05:58;5.97;;;3.20;;
28960;SDS011;16068;42.896;20.868;2023-05-10T09:08:44;11.65;;;3.13;;
28960;SDS011;16068;42.896;20.868;2023-05-10T09:11:31;6.53;;;2.45;;
28960;SDS011;16068;42.896;20.868;2023-05-10T09:14:17;5.00;;;2.38;;
28960;SDS011;16068;42.896;20.868;2023-05-10T09:17:04;5.18;;;2.45;;
28960;SDS011;16068;42.896;20.868;2023-05-10T09:19:56;6.85;;;2.17;;
28960;SDS011;16068;42.896;20.868;2023-05-10T09:22:45;5.45;;;2.50;;
28960;SDS011;16068;42.896;20.868;2023-05-10T09:25:31;5.60;;;2.65;;
28960;SDS011;16068;42.896;20.868;2023-05-10T09:28:19;9.75;;;3.17;;
28960;SDS011;16068;42.896;20.868;2023-05-10T09:31:05;7.95;;;3.72;;
28960;SDS011;16068;42.896;20.868;2023-05-10T09:33:51;9.48;;;4.30;;
28960;SDS011;16068;42.896;20.868;2023-05-10T09:36:49;5.90;;;2.95;;
28960;SDS011;16068;42.896;20.868;2023-05-10T09:39:39;16.60;;;3.33;;
28960;SDS011;16068;42.896;20.868;2023-05-10T09:42:26;9.15;;;2.80;;
28960;SDS011;16068;42.896;20.868;2023-05-10T09:45:12;14.90;;;5.47;;
28960;SDS011;16068;42.896;20.868;2023-05-10T09:47:58;16.70;;;6.43;;
28960;SDS011;16068;42.896;20.868;2023-05-10T09:50:45;15.43;;;3.35;;
28960;SDS011;16068;42.896;20.868;2023-05-10T09:53:31;12.30;;;5.05;;
28960;SDS011;16068;42.896;20.868;2023-05-10T09:56:35;21.48;;;12.55;;
28960;SDS011;16068;42.896;20.868;2023-05-10T09:59:25;13.23;;;6.25;;
28960;SDS011;16068;42.896;20.868;2023-05-10T10:02:12;11.27;;;4.32;;
28960;SDS011;16068;42.896;20.868;2023-05-10T10:05:03;10.88;;;4.35;;
28960;SDS011;16068;42.896;20.868;2023-05-10T10:07:51;13.25;;;8.18;;
28960;SDS011;16068;42.896;20.868;2023-05-10T10:10:38;13.13;;;6.50;;
28960;SDS011;16068;42.896;20.868;2023-05-10T10:13:25;9.98;;;4.70;;
28960;SDS011;16068;42.896;20.868;2023-05-10T10:16:12;13.70;;;4.68;;
28960;SDS011;16068;42.896;20.868;2023-05-10T10:18:58;18.45;;;7.70;;
28960;SDS011;16068;42.896;20.868;2023-05-10T10:21:44;19.08;;;6.40;;
28960;SDS011;16068;42.896;20.868;2023-05-10T10:24:30;14.52;;;7.50;;
28960;SDS011;16068;42.896;20.868;2023-05-10T10:36:01;16.23;;;6.07;;
28960;SDS011;16068;42.896;20.868;2023-05-10T10:41:35;12.43;;;5.57;;
28960;SDS011;16068;42.896;20.868;2023-05-10T10:52:43;10.50;;;3.65;;
28960;SDS011;16068;42.896;20.868;2023-05-10T10:55:30;14.63;;;3.53;;
28960;SDS011;16068;42.896;20.868;2023-05-10T10:58:34;24.13;;;10.75;;
28960;SDS011;16068;42.896;20.868;2023-05-10T11:06:52;26.60;;;4.63;;
28960;SDS011;16068;42.896;20.868;2023-05-10T11:10:04;31.08;;;6.43;;
28960;SDS011;16068;42.896;20.868;2023-05-10T11:13:01;10.57;;;5.97;;
28960;SDS011;16068;42.896;20.868;2023-05-10T11:15:48;20.33;;;7.68;;
28960;SDS011;16068;42.896;20.868;2023-05-10T11:18:35;18.05;;;5.80;;
28960;SDS011;16068;42.896;20.868;2023-05-10T11:21:22;91.68;;;10.27;;
28960;SDS011;16068;42.896;20.868;2023-05-10T11:24:12;28.58;;;10.82;;
28960;SDS011;16068;42.896;20.868;2023-05-10T11:26:59;17.83;;;6.35;;
28960;SDS011;16068;42.896;20.868;2023-05-10T11:29:46;34.80;;;13.77;;
28960;SDS011;16068;42.896;20.868;2023-05-10T11:32:32;23.27;;;10.38;;
28960;SDS011;16068;42.896;20.868;2023-05-10T11:35:18;37.78;;;6.72;;
28960;SDS011;16068;42.896;20.868;2023-05-10T11:38:10;16.88;;;5.38;;
28960;SDS011;16068;42.896;20.868;2023-05-10T11:40:57;20.90;;;10.13;;
28960;SDS011;16068;42.896;20.868;2023-05-10T11:43:45;16.98;;;6.45;;
28960;SDS011;16068;42.896;20.868;2023-05-10T11:46:34;9.40;;;6.40;;
28960;SDS011;16068;42.896;20.868;2023-05-10T11:49:22;9.25;;;5.95;;
28960;SDS011;16068;42.896;20.868;2023-05-10T11:52:10;16.73;;;6.05;;
28960;SDS011;16068;42.896;20.868;2023-05-10T11:54:59;15.65;;;7.13;;
28960;SDS011;16068;42.896;20.868;2023-05-10T11:57:48;12.27;;;7.53;;
28960;SDS011;16068;42.896;20.868;2023-05-10T12:00:37;15.07;;;6.78;;
28960;SDS011;16068;42.896;20.868;2023-05-10T12:03:23;14.52;;;6.15;;
28960;SDS011;16068;42.896;20.868;2023-05-10T12:06:11;19.35;;;7.57;;
28960;SDS011;16068;42.896;20.868;2023-05-10T12:08:57;11.10;;;6.22;;
28960;SDS011;16068;42.896;20.868;2023-05-10T12:11:43;11.98;;;6.32;;
28960;SDS011;16068;42.896;20.868;2023-05-10T12:14:33;8.45;;;5.93;;
28960;SDS011;16068;42.896;20.868;2023-05-10T12:17:20;12.02;;;6.38;;
28960;SDS011;16068;42.896;20.868;2023-05-10T12:20:19;15.10;;;6.57;;
28960;SDS011;16068;42.896;20.868;2023-05-10T12:23:08;19.58;;;8.00;;
28960;SDS011;16068;42.896;20.868;2023-05-10T12:26:12;16.45;;;9.65;;
28960;SDS011;16068;42.896;20.868;2023-05-10T12:32:14;21.50;;;10.52;;
28960;SDS011;16068;42.896;20.868;2023-05-10T12:35:03;19.65;;;11.98;;
28960;SDS011;16068;42.896;20.868;2023-05-10T12:37:50;15.18;;;8.23;;
28960;SDS011;16068;42.896;20.868;2023-05-10T12:43:56;30.65;;;7.80;;
28960;SDS011;16068;42.896;20.868;2023-05-10T12:46:42;13.30;;;7.85;;
28960;SDS011;16068;42.896;20.868;2023-05-10T12:49:28;22.27;;;7.03;;
28960;SDS011;16068;42.896;20.868;2023-05-10T12:52:14;12.52;;;6.90;;
28960;SDS011;16068;42.896;20.868;2023-05-10T12:55:01;100.05;;;10.27;;
28960;SDS011;16068;42.896;20.868;2023-05-10T12:57:48;97.35;;;14.27;;
28960;SDS011;16068;42.896;20.868;2023-05-10T13:00:34;125.85;;;11.48;;
28960;SDS011;16068;42.896;20.868;2023-05-10T13:03:21;30.70;;;15.80;;
28960;SDS011;16068;42.896;20.868;2023-05-10T13:06:06;19.38;;;11.95;;
28960;SDS011;16068;42.896;20.868;2023-05-10T13:08:53;27.25;;;12.70;;
28960;SDS011;16068;42.896;20.868;2023-05-10T13:11:40;19.98;;;9.38;;
28960;SDS011;16068;42.896;20.868;2023-05-10T13:14:26;21.95;;;8.95;;
28960;SDS011;16068;42.896;20.868;2023-05-10T13:17:12;20.58;;;8.13;;
28960;SDS011;16068;42.896;20.868;2023-05-10T13:19:58;22.85;;;9.38;;
28960;SDS011;16068;42.896;20.868;2023-05-10T13:22:45;29.85;;;14.00;;
28960;SDS011;16068;42.896;20.868;2023-05-10T13:25:31;39.80;;;13.77;;
28960;SDS011;16068;42.896;20.868;2023-05-10T13:28:17;19.05;;;10.68;;
28960;SDS011;16068;42.896;20.868;2023-05-10T13:31:04;30.60;;;13.38;;
28960;SDS011;16068;42.896;20.868;2023-05-10T13:33:50;40.00;;;20.38;;
28960;SDS011;16068;42.896;20.868;2023-05-10T13:36:37;35.90;;;20.55;;
28960;SDS011;16068;42.896;20.868;2023-05-10T13:39:23;40.78;;;19.83;;
28960;SDS011;16068;42.896;20.868;2023-05-10T13:42:09;25.27;;;12.27;;
28960;SDS011;16068;42.896;20.868;2023-05-10T13:44:55;22.27;;;11.52;;
28960;SDS011;16068;42.896;20.868;2023-05-10T13:47:41;29.25;;;11.40;;
28960;SDS011;16068;42.896;20.868;2023-05-10T13:50:27;19.38;;;11.13;;
28960;SDS011;16068;42.896;20.868;2023-05-10T13:53:13;14.15;;;9.23;;
28960;SDS011;16068;42.896;20.868;2023-05-10T13:56:00;16.27;;;7.60;;
28960;SDS011;16068;42.896;20.868;2023-05-10T13:58:47;14.15;;;6.93;;
28960;SDS011;16068;42.896;20.868;2023-05-10T14:01:33;29.42;;;7.40;;
28960;SDS011;16068;42.896;20.868;2023-05-10T14:04:19;16.25;;;7.43;;
28960;SDS011;16068;42.896;20.868;2023-05-10T14:07:05;12.73;;;6.47;;
28960;SDS011;16068;42.896;20.868;2023-05-10T14:09:58;16.98;;;7.07;;
28960;SDS011;16068;42.896;20.868;2023-05-10T14:15:30;18.90;;;12.75;;
28960;SDS011;16068;42.896;20.868;2023-05-10T14:18:16;23.30;;;9.88;;
28960;SDS011;16068;42.896;20.868;2023-05-10T14:21:03;21.98;;;10.38;;
28960;SDS011;16068;42.896;20.868;2023-05-10T14:23:49;14.55;;;8.05;;
28960;SDS011;16068;42.896;20.868;2023-05-10T14:26:35;15.15;;;8.38;;
28960;SDS011;16068;42.896;20.868;2023-05-10T14:29:22;19.17;;;9.07;;
28960;SDS011;16068;42.896;20.868;2023-05-10T14:32:08;12.45;;;6.75;;
28960;SDS011;16068;42.896;20.868;2023-05-10T14:34:55;10.50;;;5.93;;
28960;SDS011;16068;42.896;20.868;2023-05-10T14:37:41;9.32;;;5.68;;
28960;SDS011;16068;42.896;20.868;2023-05-10T14:40:28;12.48;;;5.97;;
28960;SDS011;16068;42.896;20.868;2023-05-10T14:43:14;14.38;;;6.40;;
28960;SDS011;16068;42.896;20.868;2023-05-10T14:46:02;9.95;;;6.55;;
28960;SDS011;16068;42.896;20.868;2023-05-10T14:48:49;13.20;;;6.20;;
28960;SDS011;16068;42.896;20.868;2023-05-10T14:51:35;9.98;;;6.38;;
28960;SDS011;16068;42.896;20.868;2023-05-10T14:54:22;10.63;;;5.90;;
28960;SDS011;16068;42.896;20.868;2023-05-10T14:57:08;11.70;;;6.30;;
28960;SDS011;16068;42.896;20.868;2023-05-10T14:59:55;23.67;;;9.35;;
28960;SDS011;16068;42.896;20.868;2023-05-10T15:02:43;45.38;;;26.05;;
28960;SDS011;16068;42.896;20.868;2023-05-10T15:05:30;107.28;;;69.55;;
28960;SDS011;16068;42.896;20.868;2023-05-10T15:08:16;31.98;;;16.38;;
28960;SDS011;16068;42.896;20.868;2023-05-10T15:11:03;17.10;;;9.68;;
28960;SDS011;16068;42.896;20.868;2023-05-10T15:13:50;14.07;;;7.30;;
28960;SDS011;16068;42.896;20.868;2023-05-10T15:16:36;39.78;;;23.88;;
28960;SDS011;16068;42.896;20.868;2023-05-10T15:19:23;106.18;;;81.28;;
28960;SDS011;16068;42.896;20.868;2023-05-10T15:22:09;33.60;;;19.17;;
28960;SDS011;16068;42.896;20.868;2023-05-10T15:24:55;43.90;;;11.85;;
28960;SDS011;16068;42.896;20.868;2023-05-10T15:27:44;18.33;;;8.63;;
28960;SDS011;16068;42.896;20.868;2023-05-10T15:30:30;16.73;;;6.88;;
28960;SDS011;16068;42.896;20.868;2023-05-10T15:33:16;17.05;;;6.70;;
28960;SDS011;16068;42.896;20.868;2023-05-10T15:36:02;61.85;;;34.13;;
28960;SDS011;16068;42.896;20.868;2023-05-10T15:38:49;74.72;;;50.88;;
28960;SDS011;16068;42.896;20.868;2023-05-10T15:41:35;57.75;;;36.92;;
28960;SDS011;16068;42.896;20.868;2023-05-10T15:44:22;12.93;;;8.30;;
28960;SDS011;16068;42.896;20.868;2023-05-10T15:47:08;12.15;;;7.78;;
28960;SDS011;16068;42.896;20.868;2023-05-10T15:49:55;13.05;;;7.35;;
28960;SDS011;16068;42.896;20.868;2023-05-10T15:52:40;12.10;;;7.55;;
28960;SDS011;16068;42.896;20.868;2023-05-10T15:55:26;19.50;;;6.95;;
28960;SDS011;16068;42.896;20.868;2023-05-10T15:58:13;12.13;;;6.70;;
28960;SDS011;16068;42.896;20.868;2023-05-10T16:00:59;21.25;;;7.00;;
28960;SDS011;16068;42.896;20.868;2023-05-10T16:03:46;13.50;;;6.60;;
28960;SDS011;16068;42.896;20.868;2023-05-10T16:06:32;17.42;;;7.32;;
28960;SDS011;16068;42.896;20.868;2023-05-10T16:09:18;12.70;;;6.82;;
28960;SDS011;16068;42.896;20.868;2023-05-10T16:12:04;12.30;;;7.05;;
28960;SDS011;16068;42.896;20.868;2023-05-10T16:14:51;15.00;;;6.78;;
28960;SDS011;16068;42.896;20.868;2023-05-10T16:17:37;15.38;;;7.05;;
28960;SDS011;16068;42.896;20.868;2023-05-10T16:20:23;13.30;;;6.63;;
28960;SDS011;16068;42.896;20.868;2023-05-10T16:23:09;15.52;;;7.05;;
28960;SDS011;16068;42.896;20.868;2023-05-10T16:25:56;9.18;;;7.00;;
28960;SDS011;16068;42.896;20.868;2023-05-10T16:28:42;11.07;;;6.32;;
28960;SDS011;16068;42.896;20.868;2023-05-10T16:31:28;20.85;;;7.38;;
28960;SDS011;16068;42.896;20.868;2023-05-10T16:34:14;15.75;;;7.22;;
28960;SDS011;16068;42.896;20.868;2023-05-10T16:37:00;15.02;;;6.75;;
28960;SDS011;16068;42.896;20.868;2023-05-10T16:39:46;13.75;;;7.00;;
28960;SDS011;16068;42.896;20.868;2023-05-10T16:42:32;15.63;;;7.30;;
28960;SDS011;16068;42.896;20.868;2023-05-10T16:45:19;31.40;;;18.48;;
28960;SDS011;16068;42.896;20.868;2023-05-10T16:48:05;50.25;;;31.23;;
28960;SDS011;16068;42.896;20.868;2023-05-10T16:50:51;32.83;;;19.55;;
28960;SDS011;16068;42.896;20.868;2023-05-10T16:53:37;17.10;;;7.80;;
28960;SDS011;16068;42.896;20.868;2023-05-10T16:56:23;16.17;;;6.95;;
28960;SDS011;16068;42.896;20.868;2023-05-10T16:59:09;14.35;;;6.20;;
28960;SDS011;16068;42.896;20.868;2023-05-10T17:01:56;12.90;;;6.40;;
28960;SDS011;16068;42.896;20.868;2023-05-10T17:04:42;15.90;;;6.32;;
28960;SDS011;16068;42.896;20.868;2023-05-10T17:07:28;13.20;;;6.47;;
28960;SDS011;16068;42.896;20.868;2023-05-10T17:10:14;18.65;;;6.88;;
28960;SDS011;16068;42.896;20.868;2023-05-10T17:13:00;14.38;;;6.05;;
28960;SDS011;16068;42.896;20.868;2023-05-10T17:15:48;20.38;;;6.45;;
28960;SDS011;16068;42.896;20.868;2023-05-10T17:18:34;11.77;;;5.80;;